sensor_id;sensor_type;location;lat;lon;timestamp;temperature;humidity
9223;DHT22;7557;51.698;3.942;2023-02-07T00:01:56;5.70;99.90
9223;DHT22;7557;51.698;3.942;2023-02-07T00:04:23;5.70;99.90
9223;DHT22;7557;51.698;3.942;2023-02-07T00:06:51;5.60;99.90
9223;DHT22;7557;51.698;3.942;2023-02-07T00:09:20;5.60;99.90
9223;DHT22;7557;51.698;3.942;2023-02-07T00:11:47;5.60;99.90
9223;DHT22;7557;51.698;3.942;2023-02-07T00:14:15;5.50;99.90
9223;DHT22;7557;51.698;3.942;2023-02-07T00:16:43;5.50;99.90
9223;DHT22;7557;51.698;3.942;2023-02-07T00:19:10;5.50;99.90
9223;DHT22;7557;51.698;3.942;2023-02-07T00:21:38;5.50;99.90
9223;DHT22;7557;51.698;3.942;2023-02-07T00:24:06;5.60;99.90
9223;DHT22;7557;51.698;3.942;2023-02-07T00:26:35;5.60;99.90
9223;DHT22;7557;51.698;3.942;2023-02-07T00:29:03;5.60;99.90
9223;DHT22;7557;51.698;3.942;2023-02-07T00:31:33;5.60;99.90
9223;DHT22;7557;51.698;3.942;2023-02-07T00:34:02;5.60;99.90
9223;DHT22;7557;51.698;3.942;2023-02-07T00:36:31;5.50;99.90
9223;DHT22;7557;51.698;3.942;2023-02-07T00:39:02;5.50;99.90
9223;DHT22;7557;51.698;3.942;2023-02-07T00:41:30;5.50;99.90
9223;DHT22;7557;51.698;3.942;2023-02-07T00:43:59;5.50;99.90
9223;DHT22;7557;51.698;3.942;2023-02-07T00:46:27;5.50;99.90
9223;DHT22;7557;51.698;3.942;2023-02-07T00:48:57;5.60;99.90
9223;DHT22;7557;51.698;3.942;2023-02-07T00:51:39;5.50;99.90
9223;DHT22;7557;51.698;3.942;2023-02-07T00:54:07;5.50;99.90
9223;DHT22;7557;51.698;3.942;2023-02-07T00:56:35;5.50;99.90
9223;DHT22;7557;51.698;3.942;2023-02-07T00:59:04;5.50;99.90
9223;DHT22;7557;51.698;3.942;2023-02-07T01:01:32;5.50;99.90
9223;DHT22;7557;51.698;3.942;2023-02-07T01:04:00;5.40;99.90
9223;DHT22;7557;51.698;3.942;2023-02-07T01:06:28;5.20;99.90
9223;DHT22;7557;51.698;3.942;2023-02-07T01:08:58;5.20;99.90
9223;DHT22;7557;51.698;3.942;2023-02-07T01:11:27;5.20;99.90
9223;DHT22;7557;51.698;3.942;2023-02-07T01:13:54;5.20;99.90
9223;DHT22;7557;51.698;3.942;2023-02-07T01:16:25;5.20;99.90
9223;DHT22;7557;51.698;3.942;2023-02-07T01:18:53;5.20;99.90
9223;DHT22;7557;51.698;3.942;2023-02-07T01:21:24;5.10;99.90
9223;DHT22;7557;51.698;3.942;2023-02-07T01:23:52;5.10;99.90
9223;DHT22;7557;51.698;3.942;2023-02-07T01:26:22;5.10;99.90
9223;DHT22;7557;51.698;3.942;2023-02-07T01:28:49;5.10;99.90
9223;DHT22;7557;51.698;3.942;2023-02-07T01:31:17;5.20;99.90
9223;DHT22;7557;51.698;3.942;2023-02-07T01:33:51;5.20;99.90
9223;DHT22;7557;51.698;3.942;2023-02-07T01:36:19;5.10;99.90
9223;DHT22;7557;51.698;3.942;2023-02-07T01:38:46;5.10;99.90
9223;DHT22;7557;51.698;3.942;2023-02-07T01:41:14;5.10;99.90
9223;DHT22;7557;51.698;3.942;2023-02-07T01:43:59;5.10;99.90
9223;DHT22;7557;51.698;3.942;2023-02-07T01:46:30;5.20;99.90
9223;DHT22;7557;51.698;3.942;2023-02-07T01:49:02;5.20;99.90
9223;DHT22;7557;51.698;3.942;2023-02-07T01:51:32;5.20;99.90
9223;DHT22;7557;51.698;3.942;2023-02-07T01:54:03;5.20;99.90
9223;DHT22;7557;51.698;3.942;2023-02-07T01:56:32;5.30;99.90
9223;DHT22;7557;51.698;3.942;2023-02-07T01:59:04;5.20;99.90
9223;DHT22;7557;51.698;3.942;2023-02-07T02:01:32;5.20;99.90
9223;DHT22;7557;51.698;3.942;2023-02-07T02:04:03;5.20;99.90
9223;DHT22;7557;51.698;3.942;2023-02-07T02:06:31;5.20;99.90
9223;DHT22;7557;51.698;3.942;2023-02-07T02:09:00;5.20;99.90
9223;DHT22;7557;51.698;3.942;2023-02-07T02:11:53;5.00;99.90
9223;DHT22;7557;51.698;3.942;2023-02-07T02:14:36;5.00;99.90
9223;DHT22;7557;51.698;3.942;2023-02-07T02:17:10;4.90;99.90
9223;DHT22;7557;51.698;3.942;2023-02-07T02:20:16;4.90;99.90
9223;DHT22;7557;51.698;3.942;2023-02-07T02:22:58;4.90;99.90
9223;DHT22;7557;51.698;3.942;2023-02-07T02:26:04;5.00;99.90
9223;DHT22;7557;51.698;3.942;2023-02-07T02:29:02;5.00;99.90
9223;DHT22;7557;51.698;3.942;2023-02-07T02:34:43;5.00;99.90
9223;DHT22;7557;51.698;3.942;2023-02-07T02:37:16;5.00;99.90
9223;DHT22;7557;51.698;3.942;2023-02-07T02:39:52;5.10;99.90
9223;DHT22;7557;51.698;3.942;2023-02-07T02:42:24;5.10;99.90
9223;DHT22;7557;51.698;3.942;2023-02-07T02:44:57;5.10;99.90
9223;DHT22;7557;51.698;3.942;2023-02-07T02:47:27;5.10;99.90
9223;DHT22;7557;51.698;3.942;2023-02-07T02:49:57;5.10;99.90
9223;DHT22;7557;51.698;3.942;2023-02-07T02:52:25;4.90;99.90
9223;DHT22;7557;51.698;3.942;2023-02-07T02:54:53;4.80;99.90
9223;DHT22;7557;51.698;3.942;2023-02-07T02:57:46;4.80;99.90
9223;DHT22;7557;51.698;3.942;2023-02-07T03:00:37;4.80;99.90
9223;DHT22;7557;51.698;3.942;2023-02-07T03:03:25;4.80;99.90
9223;DHT22;7557;51.698;3.942;2023-02-07T03:06:06;4.90;99.90
9223;DHT22;7557;51.698;3.942;2023-02-07T03:08:40;4.90;99.90
9223;DHT22;7557;51.698;3.942;2023-02-07T03:11:10;4.90;99.90
9223;DHT22;7557;51.698;3.942;2023-02-07T03:13:48;4.90;99.90
9223;DHT22;7557;51.698;3.942;2023-02-07T03:16:22;4.80;99.90
9223;DHT22;7557;51.698;3.942;2023-02-07T03:18:56;4.80;99.90
9223;DHT22;7557;51.698;3.942;2023-02-07T03:21:32;4.70;99.90
9223;DHT22;7557;51.698;3.942;2023-02-07T03:24:06;4.60;99.90
9223;DHT22;7557;51.698;3.942;2023-02-07T03:26:35;4.60;99.90
9223;DHT22;7557;51.698;3.942;2023-02-07T03:29:06;4.50;99.90
9223;DHT22;7557;51.698;3.942;2023-02-07T03:31:35;4.40;99.90
9223;DHT22;7557;51.698;3.942;2023-02-07T03:34:08;4.40;99.90
9223;DHT22;7557;51.698;3.942;2023-02-07T03:36:42;4.40;99.90
9223;DHT22;7557;51.698;3.942;2023-02-07T03:39:12;4.50;99.90
9223;DHT22;7557;51.698;3.942;2023-02-07T03:41:45;4.50;99.90
9223;DHT22;7557;51.698;3.942;2023-02-07T03:44:16;4.60;99.90
9223;DHT22;7557;51.698;3.942;2023-02-07T03:46:48;4.60;99.90
9223;DHT22;7557;51.698;3.942;2023-02-07T03:49:16;4.70;99.90
9223;DHT22;7557;51.698;3.942;2023-02-07T03:51:45;4.70;99.90
9223;DHT22;7557;51.698;3.942;2023-02-07T03:54:13;4.70;99.90
9223;DHT22;7557;51.698;3.942;2023-02-07T03:56:40;4.70;99.90
9223;DHT22;7557;51.698;3.942;2023-02-07T03:59:08;4.80;99.90
9223;DHT22;7557;51.698;3.942;2023-02-07T04:01:35;4.70;99.90
9223;DHT22;7557;51.698;3.942;2023-02-07T04:04:07;4.80;99.90
9223;DHT22;7557;51.698;3.942;2023-02-07T04:06:35;4.70;99.90
9223;DHT22;7557;51.698;3.942;2023-02-07T04:09:04;4.60;99.90
9223;DHT22;7557;51.698;3.942;2023-02-07T04:11:32;4.50;99.90
9223;DHT22;7557;51.698;3.942;2023-02-07T04:14:00;4.60;99.90
9223;DHT22;7557;51.698;3.942;2023-02-07T04:16:27;4.50;99.90
9223;DHT22;7557;51.698;3.942;2023-02-07T04:18:54;4.50;99.90
9223;DHT22;7557;51.698;3.942;2023-02-07T04:21:22;4.50;99.90
9223;DHT22;7557;51.698;3.942;2023-02-07T04:23:50;4.50;99.90
9223;DHT22;7557;51.698;3.942;2023-02-07T04:26:18;4.40;99.90
9223;DHT22;7557;51.698;3.942;2023-02-07T04:28:46;4.40;99.90
9223;DHT22;7557;51.698;3.942;2023-02-07T04:31:13;4.50;99.90
9223;DHT22;7557;51.698;3.942;2023-02-07T04:33:41;4.50;99.90
9223;DHT22;7557;51.698;3.942;2023-02-07T04:36:08;4.50;99.90
9223;DHT22;7557;51.698;3.942;2023-02-07T04:38:36;4.60;99.90
9223;DHT22;7557;51.698;3.942;2023-02-07T04:41:04;4.60;99.90
9223;DHT22;7557;51.698;3.942;2023-02-07T04:43:35;4.60;99.90
9223;DHT22;7557;51.698;3.942;2023-02-07T04:46:05;4.50;99.90
9223;DHT22;7557;51.698;3.942;2023-02-07T04:48:34;4.50;99.90
9223;DHT22;7557;51.698;3.942;2023-02-07T04:51:02;4.50;99.90
9223;DHT22;7557;51.698;3.942;2023-02-07T04:53:29;4.50;99.90
9223;DHT22;7557;51.698;3.942;2023-02-07T04:55:57;4.40;99.90
9223;DHT22;7557;51.698;3.942;2023-02-07T04:58:25;4.40;99.90
9223;DHT22;7557;51.698;3.942;2023-02-07T05:00:54;4.40;99.90
9223;DHT22;7557;51.698;3.942;2023-02-07T05:03:22;4.40;99.90
9223;DHT22;7557;51.698;3.942;2023-02-07T05:05:52;4.50;99.90
9223;DHT22;7557;51.698;3.942;2023-02-07T05:08:20;4.50;99.90
9223;DHT22;7557;51.698;3.942;2023-02-07T05:10:51;4.50;99.90
9223;DHT22;7557;51.698;3.942;2023-02-07T05:13:19;4.40;99.90
9223;DHT22;7557;51.698;3.942;2023-02-07T05:15:47;4.30;99.90
9223;DHT22;7557;51.698;3.942;2023-02-07T05:18:16;4.30;99.90
9223;DHT22;7557;51.698;3.942;2023-02-07T05:20:43;4.30;99.90
9223;DHT22;7557;51.698;3.942;2023-02-07T05:23:11;4.30;99.90
9223;DHT22;7557;51.698;3.942;2023-02-07T05:25:40;4.30;99.90
9223;DHT22;7557;51.698;3.942;2023-02-07T05:28:08;4.40;99.90
9223;DHT22;7557;51.698;3.942;2023-02-07T05:30:36;4.40;99.90
9223;DHT22;7557;51.698;3.942;2023-02-07T05:33:04;4.40;99.90
9223;DHT22;7557;51.698;3.942;2023-02-07T05:35:32;4.40;99.90
9223;DHT22;7557;51.698;3.942;2023-02-07T05:38:00;4.30;99.90
9223;DHT22;7557;51.698;3.942;2023-02-07T05:40:29;4.20;99.90
9223;DHT22;7557;51.698;3.942;2023-02-07T05:42:57;4.20;99.90
9223;DHT22;7557;51.698;3.942;2023-02-07T05:45:25;4.30;99.90
9223;DHT22;7557;51.698;3.942;2023-02-07T05:47:52;4.30;99.90
9223;DHT22;7557;51.698;3.942;2023-02-07T05:50:20;4.40;99.90
9223;DHT22;7557;51.698;3.942;2023-02-07T05:52:48;4.40;99.90
9223;DHT22;7557;51.698;3.942;2023-02-07T05:55:16;4.50;99.90
9223;DHT22;7557;51.698;3.942;2023-02-07T05:57:44;4.50;99.90
9223;DHT22;7557;51.698;3.942;2023-02-07T06:00:14;4.50;99.90
9223;DHT22;7557;51.698;3.942;2023-02-07T06:02:42;4.50;99.90
9223;DHT22;7557;51.698;3.942;2023-02-07T06:05:11;4.50;99.90
9223;DHT22;7557;51.698;3.942;2023-02-07T06:07:39;4.50;99.90
9223;DHT22;7557;51.698;3.942;2023-02-07T06:10:09;4.40;99.90
9223;DHT22;7557;51.698;3.942;2023-02-07T06:12:37;4.40;99.90
9223;DHT22;7557;51.698;3.942;2023-02-07T06:15:05;4.30;99.90
9223;DHT22;7557;51.698;3.942;2023-02-07T06:17:33;4.30;99.90
9223;DHT22;7557;51.698;3.942;2023-02-07T06:20:01;4.20;99.90
9223;DHT22;7557;51.698;3.942;2023-02-07T06:22:28;4.20;99.90
9223;DHT22;7557;51.698;3.942;2023-02-07T06:24:56;4.10;99.90
9223;DHT22;7557;51.698;3.942;2023-02-07T06:27:25;4.20;99.90
9223;DHT22;7557;51.698;3.942;2023-02-07T06:29:53;4.10;99.90
9223;DHT22;7557;51.698;3.942;2023-02-07T06:32:21;4.10;99.90
9223;DHT22;7557;51.698;3.942;2023-02-07T06:34:51;4.10;99.90
9223;DHT22;7557;51.698;3.942;2023-02-07T06:37:18;4.10;99.90
9223;DHT22;7557;51.698;3.942;2023-02-07T06:39:46;4.00;99.90
9223;DHT22;7557;51.698;3.942;2023-02-07T06:42:13;4.00;99.90
9223;DHT22;7557;51.698;3.942;2023-02-07T06:44:42;4.00;99.90
9223;DHT22;7557;51.698;3.942;2023-02-07T06:47:10;4.00;99.90
9223;DHT22;7557;51.698;3.942;2023-02-07T06:49:37;4.00;99.90
9223;DHT22;7557;51.698;3.942;2023-02-07T06:52:05;4.00;99.90
9223;DHT22;7557;51.698;3.942;2023-02-07T06:54:33;4.00;99.90
9223;DHT22;7557;51.698;3.942;2023-02-07T06:57:00;4.00;99.90
9223;DHT22;7557;51.698;3.942;2023-02-07T06:59:27;4.00;99.90
9223;DHT22;7557;51.698;3.942;2023-02-07T07:01:57;4.00;99.90
9223;DHT22;7557;51.698;3.942;2023-02-07T07:04:25;4.00;99.90
9223;DHT22;7557;51.698;3.942;2023-02-07T07:06:52;3.90;99.90
9223;DHT22;7557;51.698;3.942;2023-02-07T07:09:20;3.90;99.90
9223;DHT22;7557;51.698;3.942;2023-02-07T07:11:47;3.90;99.90
9223;DHT22;7557;51.698;3.942;2023-02-07T07:14:15;4.00;99.90
9223;DHT22;7557;51.698;3.942;2023-02-07T07:16:43;4.00;99.90
9223;DHT22;7557;51.698;3.942;2023-02-07T07:19:12;4.10;99.90
9223;DHT22;7557;51.698;3.942;2023-02-07T07:21:39;4.10;99.90
9223;DHT22;7557;51.698;3.942;2023-02-07T07:24:07;4.10;99.90
9223;DHT22;7557;51.698;3.942;2023-02-07T07:26:37;4.00;99.90
9223;DHT22;7557;51.698;3.942;2023-02-07T07:29:04;4.00;99.90
9223;DHT22;7557;51.698;3.942;2023-02-07T07:31:33;4.00;99.90
9223;DHT22;7557;51.698;3.942;2023-02-07T07:34:00;3.90;99.90
9223;DHT22;7557;51.698;3.942;2023-02-07T07:36:29;3.90;99.90
9223;DHT22;7557;51.698;3.942;2023-02-07T07:38:57;3.90;99.90
9223;DHT22;7557;51.698;3.942;2023-02-07T07:41:27;3.90;99.90
9223;DHT22;7557;51.698;3.942;2023-02-07T07:43:55;3.80;99.90
9223;DHT22;7557;51.698;3.942;2023-02-07T07:46:22;3.80;99.90
9223;DHT22;7557;51.698;3.942;2023-02-07T07:48:49;3.80;99.90
9223;DHT22;7557;51.698;3.942;2023-02-07T07:51:20;3.70;99.90
9223;DHT22;7557;51.698;3.942;2023-02-07T07:53:49;3.80;99.90
9223;DHT22;7557;51.698;3.942;2023-02-07T07:56:16;3.80;99.90
9223;DHT22;7557;51.698;3.942;2023-02-07T07:58:44;3.80;99.90
9223;DHT22;7557;51.698;3.942;2023-02-07T08:01:13;3.70;99.90
9223;DHT22;7557;51.698;3.942;2023-02-07T08:03:41;3.70;99.90
9223;DHT22;7557;51.698;3.942;2023-02-07T08:06:09;3.70;99.90
9223;DHT22;7557;51.698;3.942;2023-02-07T08:08:36;3.80;99.90
9223;DHT22;7557;51.698;3.942;2023-02-07T08:11:08;3.80;99.90
9223;DHT22;7557;51.698;3.942;2023-02-07T08:13:36;3.90;99.90
9223;DHT22;7557;51.698;3.942;2023-02-07T08:16:05;3.90;99.90
9223;DHT22;7557;51.698;3.942;2023-02-07T08:18:35;4.30;99.90
9223;DHT22;7557;51.698;3.942;2023-02-07T08:21:03;4.30;99.90
9223;DHT22;7557;51.698;3.942;2023-02-07T08:23:30;4.30;99.90
9223;DHT22;7557;51.698;3.942;2023-02-07T08:25:58;4.20;99.90
9223;DHT22;7557;51.698;3.942;2023-02-07T08:28:28;4.20;99.90
9223;DHT22;7557;51.698;3.942;2023-02-07T08:30:59;4.10;99.90
9223;DHT22;7557;51.698;3.942;2023-02-07T08:33:26;4.10;99.90
9223;DHT22;7557;51.698;3.942;2023-02-07T08:35:54;4.10;99.90
9223;DHT22;7557;51.698;3.942;2023-02-07T08:38:21;4.10;99.90
9223;DHT22;7557;51.698;3.942;2023-02-07T08:40:49;4.20;99.90
9223;DHT22;7557;51.698;3.942;2023-02-07T08:43:16;4.20;99.90
9223;DHT22;7557;51.698;3.942;2023-02-07T08:45:47;4.30;99.90
9223;DHT22;7557;51.698;3.942;2023-02-07T08:48:15;4.30;99.90
9223;DHT22;7557;51.698;3.942;2023-02-07T08:50:43;4.40;99.90
9223;DHT22;7557;51.698;3.942;2023-02-07T08:53:11;4.50;99.90
9223;DHT22;7557;51.698;3.942;2023-02-07T08:55:39;4.60;99.90
9223;DHT22;7557;51.698;3.942;2023-02-07T08:58:07;4.70;99.90
9223;DHT22;7557;51.698;3.942;2023-02-07T09:00:34;4.90;99.90
9223;DHT22;7557;51.698;3.942;2023-02-07T09:03:03;5.00;99.90
9223;DHT22;7557;51.698;3.942;2023-02-07T09:05:31;5.20;99.90
9223;DHT22;7557;51.698;3.942;2023-02-07T09:07:59;5.40;99.90
9223;DHT22;7557;51.698;3.942;2023-02-07T09:10:27;5.50;99.90
9223;DHT22;7557;51.698;3.942;2023-02-07T09:12:55;5.70;99.90
9223;DHT22;7557;51.698;3.942;2023-02-07T09:15:22;6.00;99.90
9223;DHT22;7557;51.698;3.942;2023-02-07T09:17:50;6.20;99.90
9223;DHT22;7557;51.698;3.942;2023-02-07T09:20:19;6.40;99.90
9223;DHT22;7557;51.698;3.942;2023-02-07T09:22:47;6.50;99.90
9223;DHT22;7557;51.698;3.942;2023-02-07T09:25:32;6.60;99.90
9223;DHT22;7557;51.698;3.942;2023-02-07T09:27:59;6.80;99.90
9223;DHT22;7557;51.698;3.942;2023-02-07T09:30:27;7.00;99.90
9223;DHT22;7557;51.698;3.942;2023-02-07T09:32:56;7.00;99.90
9223;DHT22;7557;51.698;3.942;2023-02-07T09:35:25;6.80;99.90
9223;DHT22;7557;51.698;3.942;2023-02-07T09:37:53;6.60;99.90
9223;DHT22;7557;51.698;3.942;2023-02-07T09:40:22;6.40;99.90
9223;DHT22;7557;51.698;3.942;2023-02-07T09:42:55;6.20;99.90
9223;DHT22;7557;51.698;3.942;2023-02-07T09:45:26;6.20;99.90
9223;DHT22;7557;51.698;3.942;2023-02-07T09:48:01;6.10;99.90
9223;DHT22;7557;51.698;3.942;2023-02-07T09:50:35;6.00;99.90
9223;DHT22;7557;51.698;3.942;2023-02-07T09:53:07;5.80;99.90
9223;DHT22;7557;51.698;3.942;2023-02-07T09:55:43;5.70;99.90
9223;DHT22;7557;51.698;3.942;2023-02-07T09:58:14;5.50;99.90
9223;DHT22;7557;51.698;3.942;2023-02-07T10:00:49;5.30;99.90
9223;DHT22;7557;51.698;3.942;2023-02-07T10:03:20;5.20;99.90
9223;DHT22;7557;51.698;3.942;2023-02-07T10:05:55;5.10;99.90
9223;DHT22;7557;51.698;3.942;2023-02-07T10:08:24;5.10;99.90
9223;DHT22;7557;51.698;3.942;2023-02-07T10:11:04;5.10;99.90
9223;DHT22;7557;51.698;3.942;2023-02-07T10:13:54;5.00;99.90
9223;DHT22;7557;51.698;3.942;2023-02-07T10:16:43;5.20;99.90
9223;DHT22;7557;51.698;3.942;2023-02-07T10:19:20;5.40;99.90
9223;DHT22;7557;51.698;3.942;2023-02-07T10:22:00;5.50;99.90
9223;DHT22;7557;51.698;3.942;2023-02-07T10:25:07;5.60;99.90
9223;DHT22;7557;51.698;3.942;2023-02-07T10:27:44;5.70;99.90
9223;DHT22;7557;51.698;3.942;2023-02-07T10:30:15;5.70;99.90
9223;DHT22;7557;51.698;3.942;2023-02-07T10:32:47;5.70;99.90
9223;DHT22;7557;51.698;3.942;2023-02-07T10:35:17;5.70;99.90
9223;DHT22;7557;51.698;3.942;2023-02-07T10:37:49;5.70;99.90
9223;DHT22;7557;51.698;3.942;2023-02-07T10:40:23;5.60;99.90
9223;DHT22;7557;51.698;3.942;2023-02-07T10:42:55;5.50;99.90
9223;DHT22;7557;51.698;3.942;2023-02-07T10:45:25;5.50;99.90
9223;DHT22;7557;51.698;3.942;2023-02-07T10:47:52;5.40;99.90
9223;DHT22;7557;51.698;3.942;2023-02-07T10:50:21;5.40;99.90
9223;DHT22;7557;51.698;3.942;2023-02-07T10:52:53;5.40;99.90
9223;DHT22;7557;51.698;3.942;2023-02-07T10:55:34;5.40;99.90
9223;DHT22;7557;51.698;3.942;2023-02-07T10:58:03;5.50;99.90
9223;DHT22;7557;51.698;3.942;2023-02-07T11:00:31;5.50;99.90
9223;DHT22;7557;51.698;3.942;2023-02-07T11:03:03;5.60;99.90
9223;DHT22;7557;51.698;3.942;2023-02-07T11:05:34;5.50;99.90
9223;DHT22;7557;51.698;3.942;2023-02-07T11:08:10;5.40;99.90
9223;DHT22;7557;51.698;3.942;2023-02-07T11:10:46;5.30;99.90
9223;DHT22;7557;51.698;3.942;2023-02-07T11:13:15;5.10;99.90
9223;DHT22;7557;51.698;3.942;2023-02-07T11:15:49;4.90;99.90
9223;DHT22;7557;51.698;3.942;2023-02-07T11:18:33;4.80;99.90
9223;DHT22;7557;51.698;3.942;2023-02-07T11:21:05;4.80;99.90
9223;DHT22;7557;51.698;3.942;2023-02-07T11:23:34;4.60;99.90
9223;DHT22;7557;51.698;3.942;2023-02-07T11:26:02;4.50;99.90
9223;DHT22;7557;51.698;3.942;2023-02-07T11:28:31;4.40;99.90
9223;DHT22;7557;51.698;3.942;2023-02-07T11:31:01;4.30;99.90
9223;DHT22;7557;51.698;3.942;2023-02-07T11:33:32;4.40;99.90
9223;DHT22;7557;51.698;3.942;2023-02-07T11:36:02;4.60;99.90
9223;DHT22;7557;51.698;3.942;2023-02-07T11:38:29;4.80;99.90
9223;DHT22;7557;51.698;3.942;2023-02-07T11:40:59;4.70;99.90
9223;DHT22;7557;51.698;3.942;2023-02-07T11:43:32;4.60;99.90
9223;DHT22;7557;51.698;3.942;2023-02-07T11:46:04;4.50;99.90
9223;DHT22;7557;51.698;3.942;2023-02-07T11:48:36;4.40;99.90
9223;DHT22;7557;51.698;3.942;2023-02-07T11:51:07;4.40;99.90
9223;DHT22;7557;51.698;3.942;2023-02-07T11:53:38;4.50;99.90
9223;DHT22;7557;51.698;3.942;2023-02-07T11:56:20;4.60;99.90
9223;DHT22;7557;51.698;3.942;2023-02-07T11:58:49;4.70;99.90
9223;DHT22;7557;51.698;3.942;2023-02-07T12:01:21;4.80;99.90
9223;DHT22;7557;51.698;3.942;2023-02-07T12:03:52;5.00;99.90
9223;DHT22;7557;51.698;3.942;2023-02-07T12:06:28;5.10;99.90
9223;DHT22;7557;51.698;3.942;2023-02-07T12:08:57;5.20;99.90
9223;DHT22;7557;51.698;3.942;2023-02-07T12:11:31;5.30;99.90
9223;DHT22;7557;51.698;3.942;2023-02-07T12:14:07;5.40;99.90
9223;DHT22;7557;51.698;3.942;2023-02-07T12:16:42;5.40;99.90
9223;DHT22;7557;51.698;3.942;2023-02-07T12:19:16;5.30;99.90
9223;DHT22;7557;51.698;3.942;2023-02-07T12:21:53;5.30;99.90
9223;DHT22;7557;51.698;3.942;2023-02-07T12:24:27;5.20;99.90
9223;DHT22;7557;51.698;3.942;2023-02-07T12:27:00;5.00;99.90
9223;DHT22;7557;51.698;3.942;2023-02-07T12:29:39;4.90;99.90
9223;DHT22;7557;51.698;3.942;2023-02-07T12:32:17;4.90;99.90
9223;DHT22;7557;51.698;3.942;2023-02-07T12:34:56;4.70;99.90
9223;DHT22;7557;51.698;3.942;2023-02-07T12:37:32;4.60;99.90
9223;DHT22;7557;51.698;3.942;2023-02-07T12:40:11;4.60;99.90
9223;DHT22;7557;51.698;3.942;2023-02-07T12:42:44;4.60;99.90
9223;DHT22;7557;51.698;3.942;2023-02-07T12:45:15;4.60;99.90
9223;DHT22;7557;51.698;3.942;2023-02-07T12:47:49;4.70;99.90
9223;DHT22;7557;51.698;3.942;2023-02-07T12:50:48;4.70;99.90
9223;DHT22;7557;51.698;3.942;2023-02-07T12:53:28;4.90;99.90
9223;DHT22;7557;51.698;3.942;2023-02-07T12:56:07;5.10;99.90
9223;DHT22;7557;51.698;3.942;2023-02-07T12:58:49;5.20;99.90
9223;DHT22;7557;51.698;3.942;2023-02-07T13:01:26;5.20;99.90
9223;DHT22;7557;51.698;3.942;2023-02-07T13:07:04;5.50;99.90
9223;DHT22;7557;51.698;3.942;2023-02-07T13:09:38;5.40;99.90
9223;DHT22;7557;51.698;3.942;2023-02-07T13:12:11;5.40;99.90
9223;DHT22;7557;51.698;3.942;2023-02-07T13:14:54;5.20;99.90
9223;DHT22;7557;51.698;3.942;2023-02-07T13:17:37;5.10;99.90
9223;DHT22;7557;51.698;3.942;2023-02-07T13:20:19;5.20;99.90
9223;DHT22;7557;51.698;3.942;2023-02-07T13:22:54;5.30;99.90
9223;DHT22;7557;51.698;3.942;2023-02-07T13:25:25;5.40;99.90
9223;DHT22;7557;51.698;3.942;2023-02-07T13:27:55;5.50;99.90
9223;DHT22;7557;51.698;3.942;2023-02-07T13:30:26;5.50;99.90
9223;DHT22;7557;51.698;3.942;2023-02-07T13:32:58;5.50;99.90
9223;DHT22;7557;51.698;3.942;2023-02-07T13:35:29;5.60;99.90
9223;DHT22;7557;51.698;3.942;2023-02-07T13:38:05;5.60;99.90
9223;DHT22;7557;51.698;3.942;2023-02-07T13:40:51;5.50;99.90
9223;DHT22;7557;51.698;3.942;2023-02-07T13:43:23;5.40;99.90
9223;DHT22;7557;51.698;3.942;2023-02-07T13:46:06;5.50;99.90
9223;DHT22;7557;51.698;3.942;2023-02-07T13:48:41;5.50;99.90
9223;DHT22;7557;51.698;3.942;2023-02-07T13:51:16;5.50;99.90
9223;DHT22;7557;51.698;3.942;2023-02-07T13:53:52;5.50;99.90
9223;DHT22;7557;51.698;3.942;2023-02-07T13:56:30;5.40;99.90
9223;DHT22;7557;51.698;3.942;2023-02-07T13:59:32;5.40;99.90
9223;DHT22;7557;51.698;3.942;2023-02-07T14:02:16;5.30;99.90
9223;DHT22;7557;51.698;3.942;2023-02-07T14:04:49;5.30;99.90
9223;DHT22;7557;51.698;3.942;2023-02-07T14:07:20;5.30;99.90
9223;DHT22;7557;51.698;3.942;2023-02-07T14:09:51;5.40;99.90
9223;DHT22;7557;51.698;3.942;2023-02-07T14:12:23;5.20;99.90
9223;DHT22;7557;51.698;3.942;2023-02-07T14:14:54;5.20;99.90
9223;DHT22;7557;51.698;3.942;2023-02-07T14:17:57;5.30;99.90
9223;DHT22;7557;51.698;3.942;2023-02-07T14:20:47;5.30;99.90
9223;DHT22;7557;51.698;3.942;2023-02-07T14:23:16;5.40;99.90
9223;DHT22;7557;51.698;3.942;2023-02-07T14:25:44;5.40;99.90
9223;DHT22;7557;51.698;3.942;2023-02-07T14:28:29;5.50;99.90
9223;DHT22;7557;51.698;3.942;2023-02-07T14:31:18;5.50;99.90
9223;DHT22;7557;51.698;3.942;2023-02-07T14:34:09;5.50;99.90
9223;DHT22;7557;51.698;3.942;2023-02-07T14:36:39;5.50;99.90
9223;DHT22;7557;51.698;3.942;2023-02-07T14:39:23;5.60;99.90
9223;DHT22;7557;51.698;3.942;2023-02-07T14:42:01;5.50;99.90
9223;DHT22;7557;51.698;3.942;2023-02-07T14:44:34;5.60;99.90
9223;DHT22;7557;51.698;3.942;2023-02-07T14:47:04;5.50;99.90
9223;DHT22;7557;51.698;3.942;2023-02-07T14:49:37;5.60;99.90
9223;DHT22;7557;51.698;3.942;2023-02-07T14:52:09;5.50;99.90
9223;DHT22;7557;51.698;3.942;2023-02-07T14:54:41;5.50;99.90
9223;DHT22;7557;51.698;3.942;2023-02-07T14:57:23;5.50;99.90
9223;DHT22;7557;51.698;3.942;2023-02-07T15:00:00;5.50;99.90
9223;DHT22;7557;51.698;3.942;2023-02-07T15:02:34;5.50;99.90
9223;DHT22;7557;51.698;3.942;2023-02-07T15:05:18;5.50;99.90
9223;DHT22;7557;51.698;3.942;2023-02-07T15:07:47;5.40;99.90
9223;DHT22;7557;51.698;3.942;2023-02-07T15:10:17;5.30;99.90
9223;DHT22;7557;51.698;3.942;2023-02-07T15:12:48;5.30;99.90
9223;DHT22;7557;51.698;3.942;2023-02-07T15:15:18;5.40;99.90
9223;DHT22;7557;51.698;3.942;2023-02-07T15:17:46;5.40;99.90
9223;DHT22;7557;51.698;3.942;2023-02-07T15:20:18;5.50;99.90
9223;DHT22;7557;51.698;3.942;2023-02-07T15:22:47;5.60;99.90
9223;DHT22;7557;51.698;3.942;2023-02-07T15:25:15;5.70;99.90
9223;DHT22;7557;51.698;3.942;2023-02-07T15:27:57;5.70;99.90
9223;DHT22;7557;51.698;3.942;2023-02-07T15:30:25;5.70;99.90
9223;DHT22;7557;51.698;3.942;2023-02-07T15:32:52;5.70;99.90
9223;DHT22;7557;51.698;3.942;2023-02-07T15:35:23;5.70;99.90
9223;DHT22;7557;51.698;3.942;2023-02-07T15:37:52;5.60;99.90
9223;DHT22;7557;51.698;3.942;2023-02-07T15:40:21;5.60;99.90
9223;DHT22;7557;51.698;3.942;2023-02-07T15:42:50;5.60;99.90
9223;DHT22;7557;51.698;3.942;2023-02-07T15:45:23;5.60;99.90
9223;DHT22;7557;51.698;3.942;2023-02-07T15:47:59;5.60;99.90
9223;DHT22;7557;51.698;3.942;2023-02-07T15:50:29;5.70;99.90
9223;DHT22;7557;51.698;3.942;2023-02-07T15:52:58;5.70;99.90
9223;DHT22;7557;51.698;3.942;2023-02-07T15:55:31;5.80;99.90
9223;DHT22;7557;51.698;3.942;2023-02-07T15:57:59;5.70;99.90
9223;DHT22;7557;51.698;3.942;2023-02-07T16:00:28;5.70;99.90
9223;DHT22;7557;51.698;3.942;2023-02-07T16:02:59;5.70;99.90
9223;DHT22;7557;51.698;3.942;2023-02-07T16:05:30;5.70;99.90
9223;DHT22;7557;51.698;3.942;2023-02-07T16:07:59;5.70;99.90
9223;DHT22;7557;51.698;3.942;2023-02-07T16:10:33;5.70;99.90
9223;DHT22;7557;51.698;3.942;2023-02-07T16:13:08;5.70;99.90
9223;DHT22;7557;51.698;3.942;2023-02-07T16:15:39;5.70;99.90
9223;DHT22;7557;51.698;3.942;2023-02-07T16:18:35;5.70;99.90
9223;DHT22;7557;51.698;3.942;2023-02-07T16:21:06;5.70;99.90
9223;DHT22;7557;51.698;3.942;2023-02-07T16:23:36;5.70;99.90
9223;DHT22;7557;51.698;3.942;2023-02-07T16:26:04;5.70;99.90
9223;DHT22;7557;51.698;3.942;2023-02-07T16:28:32;5.70;99.90
9223;DHT22;7557;51.698;3.942;2023-02-07T16:31:00;5.70;99.90
9223;DHT22;7557;51.698;3.942;2023-02-07T16:33:28;5.70;99.90
9223;DHT22;7557;51.698;3.942;2023-02-07T16:35:55;5.60;99.90
9223;DHT22;7557;51.698;3.942;2023-02-07T16:38:25;5.60;99.90
9223;DHT22;7557;51.698;3.942;2023-02-07T16:40:52;5.60;99.90
9223;DHT22;7557;51.698;3.942;2023-02-07T16:43:33;5.50;99.90
9223;DHT22;7557;51.698;3.942;2023-02-07T16:46:01;5.50;99.90
9223;DHT22;7557;51.698;3.942;2023-02-07T16:48:29;5.50;99.90
9223;DHT22;7557;51.698;3.942;2023-02-07T16:50:59;5.50;99.90
9223;DHT22;7557;51.698;3.942;2023-02-07T16:53:28;5.40;99.90